Pleasant Grove, North Carolina
Current Conditions -  °F | °C
As of 1:15 PM on Thursday 23 Oct 2014 (Local Time) from KMRN Reporting Station
Clear Clear  
Wind Chill: 66°   Ceiling: Unl
Heat Index: 66°   Visibility: 10mi
Dew Point: 35°   Wind: 5mph
Humidity: 31%   Direction: 20°NNE
Pressure: 30.1"   Gusts: NA
Location:  35.7567°N, 81.7518°W
Report Text: KMRN 231715Z AUTO 02004KT 10SM CLR 19/01 A3010 RMK AO2 T01900014
Loading
Personal Weather Stations






























Interactive Weather Map
Tropical Storm Tracking
New forecast layout! Learn more

10-Day Weather Forecast

Advertisements
Track Severe Weather on mobile